createdAt,value
2017-09-12T00:00:59.366Z,1.40
2017-09-12T00:03:26.985Z,1.30
2017-09-12T00:05:54.562Z,1.33
2017-09-12T00:08:22.191Z,1.13
2017-09-12T00:10:49.783Z,1.50
2017-09-12T00:13:17.417Z,1.50
2017-09-12T00:15:44.999Z,1.30
2017-09-12T00:18:12.634Z,1.40
2017-09-12T00:20:40.215Z,1.40
2017-09-12T00:23:07.892Z,1.70
2017-09-12T00:25:35.483Z,1.40
2017-09-12T00:28:03.103Z,1.30
2017-09-12T00:30:30.694Z,1.50
2017-09-12T00:32:58.303Z,1.77
2017-09-12T00:35:25.891Z,1.20
2017-09-12T00:37:53.558Z,1.10
2017-09-12T00:40:21.147Z,1.70
2017-09-12T00:42:48.740Z,1.60
2017-09-12T00:45:16.346Z,1.50
2017-09-12T00:47:43.950Z,1.47
2017-09-12T00:50:11.572Z,1.70
2017-09-12T00:52:39.251Z,1.60
2017-09-12T00:55:07.144Z,1.17
2017-09-12T00:57:34.852Z,1.43
2017-09-12T01:00:02.699Z,1.37
2017-09-12T01:02:31.110Z,1.37
2017-09-12T01:04:58.900Z,1.40
2017-09-12T01:07:26.667Z,1.40
2017-09-12T01:09:54.424Z,1.30
2017-09-12T01:12:22.095Z,1.70
2017-09-12T01:14:49.874Z,1.20
2017-09-12T01:17:17.559Z,1.70
2017-09-12T01:19:45.319Z,1.80
2017-09-12T01:22:12.981Z,1.40
2017-09-12T01:24:40.782Z,1.37
2017-09-12T01:27:08.562Z,1.80
2017-09-12T01:29:36.302Z,1.90
2017-09-12T01:32:03.900Z,2.50
2017-09-12T01:34:31.478Z,1.43
2017-09-12T01:36:59.086Z,1.90
2017-09-12T01:39:26.663Z,1.33
2017-09-12T01:41:54.297Z,1.67
2017-09-12T01:44:21.890Z,1.37
2017-09-12T01:46:49.498Z,1.40
2017-09-12T01:49:17.091Z,1.20
2017-09-12T01:51:44.923Z,2.00
2017-09-12T01:54:12.721Z,2.20
2017-09-12T01:56:40.588Z,1.77
2017-09-12T01:59:08.291Z,2.73
2017-09-12T02:01:35.877Z,1.20
2017-09-12T02:04:03.519Z,1.33
2017-09-12T02:06:31.112Z,1.50
2017-09-12T02:08:58.738Z,2.13
2017-09-12T02:11:26.406Z,1.30
2017-09-12T02:13:54.033Z,1.43
2017-09-12T02:16:21.655Z,1.80
2017-09-12T02:18:49.277Z,1.50
2017-09-12T02:21:16.875Z,1.37
2017-09-12T02:23:44.510Z,1.40
2017-09-12T02:26:12.143Z,1.10
2017-09-12T02:28:39.737Z,1.27
2017-09-12T02:31:07.354Z,1.60
2017-09-12T02:33:34.955Z,1.37
2017-09-12T02:36:02.594Z,1.80
2017-09-12T02:38:30.295Z,1.50
2017-09-12T02:40:57.938Z,1.50
2017-09-12T02:43:25.530Z,1.23
2017-09-12T02:45:53.179Z,1.47
2017-09-12T02:48:20.783Z,1.40
2017-09-12T02:50:48.481Z,1.60
2017-09-12T02:53:16.410Z,1.63
2017-09-12T02:55:44.154Z,2.30
2017-09-12T02:58:11.930Z,1.40
2017-09-12T03:00:39.683Z,2.17
2017-09-12T03:03:07.454Z,1.33
2017-09-12T03:05:35.188Z,1.80
2017-09-12T03:08:02.900Z,2.60
2017-09-12T03:10:30.710Z,1.70
2017-09-12T03:12:58.442Z,1.10
2017-09-12T03:15:26.365Z,1.67
2017-09-12T03:17:54.084Z,1.90
2017-09-12T03:20:21.792Z,1.60
2017-09-12T03:22:49.629Z,1.67
2017-09-12T03:25:17.380Z,2.03
2017-09-12T03:27:45.199Z,2.00
2017-09-12T03:30:12.977Z,1.63
2017-09-12T03:32:40.599Z,1.90
2017-09-12T03:35:08.215Z,2.03
2017-09-12T03:37:35.928Z,1.60
2017-09-12T03:40:03.685Z,2.97
2017-09-12T03:42:31.412Z,2.07
2017-09-12T03:44:59.153Z,1.90
2017-09-12T03:47:26.802Z,1.90
2017-09-12T03:49:54.425Z,1.70
2017-09-12T03:52:22.106Z,1.50
2017-09-12T03:54:49.986Z,1.77
2017-09-12T03:57:19.385Z,1.80
2017-09-12T03:59:47.105Z,2.90
2017-09-12T04:02:14.807Z,2.23
2017-09-12T04:04:42.678Z,1.60
2017-09-12T04:07:10.273Z,1.40
2017-09-12T04:09:37.903Z,1.70
2017-09-12T04:12:05.582Z,2.20
2017-09-12T04:14:33.325Z,2.17
2017-09-12T04:17:01.089Z,1.93
2017-09-12T04:19:28.854Z,2.00
2017-09-12T04:21:56.619Z,2.93
2017-09-12T04:24:26.431Z,1.80
2017-09-12T04:26:54.501Z,1.90
2017-09-12T04:29:22.254Z,1.87
2017-09-12T04:31:49.862Z,1.70
2017-09-12T04:34:17.479Z,1.70
2017-09-12T04:36:45.075Z,1.73
2017-09-12T04:39:12.701Z,1.63
2017-09-12T04:41:40.299Z,1.90
2017-09-12T04:44:07.939Z,1.77
2017-09-12T04:46:35.544Z,2.30
2017-09-12T04:49:03.182Z,1.77
2017-09-12T04:51:30.773Z,1.60
2017-09-12T04:53:58.408Z,3.50
2017-09-12T04:56:26.086Z,2.57
2017-09-12T04:58:53.761Z,1.60
2017-09-12T05:01:21.351Z,2.20
2017-09-12T05:03:49.082Z,1.90
2017-09-12T05:06:16.657Z,1.93
2017-09-12T05:08:44.271Z,2.03
2017-09-12T05:11:11.843Z,2.20
2017-09-12T05:13:39.471Z,1.80
2017-09-12T05:16:07.094Z,1.50
2017-09-12T05:18:34.744Z,1.60
2017-09-12T05:21:02.330Z,2.70
2017-09-12T05:23:29.962Z,2.27
2017-09-12T05:25:57.570Z,2.30
2017-09-12T05:28:25.184Z,2.50
2017-09-12T05:30:52.798Z,2.37
2017-09-12T05:33:20.527Z,2.43
2017-09-12T05:35:48.123Z,2.23
2017-09-12T05:38:15.739Z,2.70
2017-09-12T05:40:43.375Z,2.90
2017-09-12T05:43:11.002Z,2.50
2017-09-12T05:45:38.601Z,2.40
2017-09-12T05:48:06.210Z,2.63
2017-09-12T05:50:33.806Z,2.37
2017-09-12T05:53:01.438Z,2.83
2017-09-12T05:55:29.043Z,2.23
2017-09-12T05:57:56.634Z,3.00
2017-09-12T06:00:24.390Z,3.10
2017-09-12T06:02:51.983Z,2.40
2017-09-12T06:05:19.618Z,3.00
2017-09-12T06:07:47.222Z,2.77
2017-09-12T06:10:14.871Z,2.90
2017-09-12T06:12:42.450Z,3.17
2017-09-12T06:15:10.103Z,2.60
2017-09-12T06:17:37.694Z,3.10
2017-09-12T06:20:05.320Z,2.57
2017-09-12T06:22:33.031Z,3.10
2017-09-12T06:25:00.647Z,3.53
2017-09-12T06:27:28.253Z,4.93
2017-09-12T06:29:55.881Z,3.10
2017-09-12T06:32:23.511Z,3.60
2017-09-12T06:34:51.099Z,2.87
2017-09-12T06:37:18.714Z,2.63
2017-09-12T06:39:46.354Z,3.67
2017-09-12T06:42:13.954Z,2.70
2017-09-12T06:44:41.547Z,2.50
2017-09-12T06:47:09.166Z,2.93
2017-09-12T06:49:36.762Z,3.17
2017-09-12T06:52:04.383Z,3.40
2017-09-12T06:54:31.976Z,2.20
2017-09-12T06:56:59.617Z,2.60
2017-09-12T06:59:27.211Z,2.83
2017-09-12T07:01:54.931Z,2.87
2017-09-12T07:04:22.521Z,2.90
2017-09-12T07:06:50.174Z,2.77
2017-09-12T07:09:17.775Z,3.20
2017-09-12T07:11:45.396Z,3.37
2017-09-12T07:14:13.000Z,3.60
2017-09-12T07:16:40.593Z,2.60
2017-09-12T07:19:08.226Z,3.50
2017-09-12T07:21:35.843Z,3.43
2017-09-12T07:24:03.491Z,3.50
2017-09-12T07:26:31.101Z,3.23
2017-09-12T07:28:58.742Z,3.00
2017-09-12T07:31:26.564Z,3.17
2017-09-12T07:33:55.151Z,2.80
2017-09-12T07:36:23.083Z,2.43
2017-09-12T07:38:51.087Z,3.00
2017-09-12T07:41:18.859Z,3.00
2017-09-12T07:43:46.786Z,3.17
2017-09-12T07:46:14.556Z,3.07
2017-09-12T07:48:42.350Z,3.30
2017-09-12T07:51:10.193Z,2.67
2017-09-12T07:53:38.021Z,4.40
2017-09-12T07:56:05.823Z,2.80
2017-09-12T07:58:33.605Z,4.23
2017-09-12T08:01:01.207Z,3.03
2017-09-12T08:03:28.849Z,2.63
2017-09-12T08:05:56.432Z,2.80
2017-09-12T08:08:24.068Z,3.33
2017-09-12T08:10:51.685Z,2.80
2017-09-12T08:13:19.422Z,2.80
2017-09-12T08:15:47.040Z,3.10
2017-09-12T08:18:14.639Z,2.43
2017-09-12T08:20:42.258Z,2.70
2017-09-12T08:23:09.890Z,2.57
2017-09-12T08:25:37.522Z,2.70
2017-09-12T08:28:05.155Z,3.07
2017-09-12T08:30:32.774Z,3.70
2017-09-12T08:33:00.364Z,2.90
2017-09-12T08:35:27.955Z,3.07
2017-09-12T08:37:55.583Z,3.47
2017-09-12T08:40:23.259Z,2.90
2017-09-12T08:42:50.868Z,3.57
2017-09-12T08:45:18.483Z,3.03
2017-09-12T08:47:46.108Z,3.50
2017-09-12T08:50:13.738Z,3.30
2017-09-12T08:52:41.341Z,4.00
2017-09-12T08:55:08.973Z,2.93
2017-09-12T08:57:36.565Z,3.30
2017-09-12T09:00:04.190Z,3.60
2017-09-12T09:02:32.447Z,2.90
2017-09-12T09:05:00.059Z,3.47
2017-09-12T09:07:27.665Z,3.13
2017-09-12T09:09:55.284Z,2.80
2017-09-12T09:12:22.872Z,3.70
2017-09-12T09:14:50.495Z,3.20
2017-09-12T09:17:18.087Z,3.23
2017-09-12T09:19:45.695Z,3.50
2017-09-12T09:22:13.361Z,3.10
2017-09-12T09:24:40.971Z,3.67
2017-09-12T09:27:08.602Z,3.73
2017-09-12T09:29:36.227Z,3.77
2017-09-12T09:32:03.858Z,4.23
2017-09-12T09:34:31.453Z,3.73
2017-09-12T09:36:59.077Z,3.73
2017-09-12T09:39:26.701Z,4.17
2017-09-12T09:41:54.294Z,5.10
2017-09-12T09:44:22.011Z,4.20
2017-09-12T09:46:49.639Z,3.73
2017-09-12T09:49:17.230Z,4.47
2017-09-12T09:51:44.841Z,3.50
2017-09-12T09:54:12.432Z,4.43
2017-09-12T09:56:40.054Z,3.03
2017-09-12T09:59:07.698Z,3.23
2017-09-12T10:01:35.315Z,3.00
2017-09-12T10:04:02.903Z,3.40
2017-09-12T10:06:30.539Z,2.97
2017-09-12T10:08:58.146Z,3.37
2017-09-12T10:11:25.770Z,3.40
2017-09-12T10:13:53.382Z,3.50
2017-09-12T10:16:21.002Z,3.07
2017-09-12T10:18:48.610Z,3.50
2017-09-12T10:21:16.307Z,3.33
2017-09-12T10:23:43.927Z,2.80
2017-09-12T10:26:11.557Z,3.30
2017-09-12T10:28:39.162Z,3.40
2017-09-12T10:31:06.791Z,2.60
2017-09-12T10:33:34.375Z,2.63
2017-09-12T10:36:01.995Z,2.43
2017-09-12T10:38:29.627Z,2.90
2017-09-12T10:40:57.573Z,2.40
2017-09-12T10:43:25.587Z,2.20
2017-09-12T10:45:53.849Z,2.60
2017-09-12T10:48:21.792Z,2.60
2017-09-12T10:50:49.415Z,2.77
2017-09-12T10:53:17.007Z,2.67
2017-09-12T10:55:44.647Z,1.73
2017-09-12T10:58:12.235Z,2.33
2017-09-12T11:00:39.836Z,2.70
2017-09-12T11:03:07.451Z,2.07
2017-09-12T11:05:35.126Z,1.90
2017-09-12T11:08:02.710Z,2.07
2017-09-12T11:10:30.339Z,2.10
2017-09-12T11:12:58.232Z,2.87
2017-09-12T11:15:26.176Z,2.77
2017-09-12T11:17:53.866Z,2.00
2017-09-12T11:20:21.675Z,2.30
2017-09-12T11:22:49.429Z,1.80
2017-09-12T11:25:17.162Z,1.70
2017-09-12T11:27:44.845Z,1.97
2017-09-12T11:30:12.623Z,2.10
2017-09-12T11:32:40.391Z,2.23
2017-09-12T11:35:08.157Z,1.50
2017-09-12T11:37:36.084Z,2.10
2017-09-12T11:40:03.779Z,1.87
2017-09-12T11:42:31.875Z,1.90
2017-09-12T11:44:59.586Z,1.90
2017-09-12T11:47:27.376Z,3.00
2017-09-12T11:49:55.123Z,2.00
2017-09-12T11:52:22.809Z,2.83
2017-09-12T11:54:50.553Z,2.40
2017-09-12T11:57:18.342Z,1.80
2017-09-12T11:59:46.084Z,1.63
2017-09-12T12:02:13.849Z,1.90
2017-09-12T12:04:41.497Z,2.30
2017-09-12T12:07:09.209Z,2.37
2017-09-12T12:09:36.916Z,1.40
2017-09-12T12:12:04.629Z,2.10
2017-09-12T12:20:13.414Z,1.20
2017-09-12T12:22:41.127Z,1.27
2017-09-12T12:25:08.779Z,1.63
2017-09-12T12:27:36.402Z,1.60
2017-09-12T12:30:04.007Z,2.07
2017-09-12T12:32:31.713Z,2.40
2017-09-12T12:34:59.361Z,1.40
2017-09-12T12:37:27.045Z,13.40
2017-09-12T12:39:54.747Z,1.23
2017-09-12T12:42:22.443Z,2.00
2017-09-12T12:44:50.199Z,1.50
2017-09-12T12:47:17.843Z,1.70
2017-09-12T12:49:45.523Z,1.23
2017-09-12T12:52:13.127Z,1.17
2017-09-12T12:54:40.754Z,1.50
2017-09-12T12:57:08.359Z,1.30
2017-09-12T12:59:35.980Z,1.40
2017-09-12T13:02:03.597Z,1.13
2017-09-12T13:04:31.244Z,1.43
2017-09-12T13:06:58.855Z,1.70
2017-09-12T13:09:26.479Z,1.37
2017-09-12T13:11:54.078Z,0.90
2017-09-12T13:14:21.698Z,0.70
2017-09-12T13:16:49.299Z,0.90
2017-09-12T13:19:16.916Z,0.80
2017-09-12T13:21:44.514Z,1.00
2017-09-12T13:24:12.179Z,0.80
2017-09-12T13:26:39.779Z,0.80
2017-09-12T13:29:07.380Z,0.80
2017-09-12T13:31:35.103Z,1.73
2017-09-12T13:34:02.703Z,1.10
2017-09-12T13:36:30.335Z,1.30
2017-09-12T13:38:57.939Z,0.60
2017-09-12T13:41:25.555Z,0.93
2017-09-12T13:43:53.186Z,0.87
2017-09-12T13:46:20.818Z,0.90
2017-09-12T13:48:48.417Z,0.70
2017-09-12T13:51:16.327Z,1.00
2017-09-12T13:53:44.022Z,1.20
2017-09-12T13:56:11.855Z,0.90
2017-09-12T13:58:39.617Z,1.10
2017-09-12T14:01:07.339Z,1.10
2017-09-12T14:03:35.039Z,1.53
2017-09-12T14:06:02.910Z,1.30
2017-09-12T14:08:30.583Z,2.03
2017-09-12T14:10:58.599Z,1.30
2017-09-12T14:13:26.395Z,2.87
2017-09-12T14:15:54.102Z,2.27
2017-09-12T14:18:21.790Z,2.73
2017-09-12T14:20:49.559Z,0.87
2017-09-12T14:23:17.384Z,1.40
2017-09-12T14:25:45.047Z,1.80
2017-09-12T14:28:12.787Z,1.67
2017-09-12T14:30:40.426Z,1.37
2017-09-12T14:33:08.033Z,1.37
2017-09-12T14:35:35.659Z,1.40
2017-09-12T14:38:03.256Z,3.40
2017-09-12T14:40:30.904Z,1.90
2017-09-12T14:42:58.645Z,1.70
2017-09-12T14:45:26.309Z,1.20
2017-09-12T14:47:53.951Z,1.13
2017-09-12T14:50:21.631Z,1.47
2017-09-12T14:52:49.298Z,1.00
2017-09-12T14:55:16.984Z,16.73
2017-09-12T14:57:44.678Z,2.50
2017-09-12T15:00:12.342Z,1.30
2017-09-12T15:02:40.037Z,1.00
2017-09-12T15:05:07.753Z,0.90
2017-09-12T15:07:35.481Z,1.10
2017-09-12T15:10:03.228Z,1.00
2017-09-12T15:12:31.586Z,1.07
2017-09-12T15:14:59.335Z,2.00
2017-09-12T15:17:27.099Z,0.93
2017-09-12T15:19:54.839Z,2.47
2017-09-12T15:22:22.507Z,1.17
2017-09-12T15:24:50.143Z,1.50
2017-09-12T15:27:17.822Z,0.90
2017-09-12T15:29:45.536Z,0.90
2017-09-12T15:32:13.386Z,4.83
2017-09-12T15:34:41.249Z,1.80
2017-09-12T15:37:09.327Z,1.20
2017-09-12T15:39:37.166Z,1.17
2017-09-12T15:42:05.079Z,2.80
2017-09-12T15:44:33.165Z,1.93
2017-09-12T15:47:00.920Z,0.90
2017-09-12T15:49:29.557Z,0.97
2017-09-12T15:51:57.206Z,1.30
2017-09-12T15:54:24.795Z,1.47
2017-09-12T15:56:52.416Z,1.57
2017-09-12T15:59:20.076Z,1.00
2017-09-12T16:01:47.752Z,3.80
2017-09-12T16:04:15.391Z,1.73
2017-09-12T16:06:42.994Z,3.93
2017-09-12T16:09:10.701Z,1.83
2017-09-12T16:11:38.321Z,3.70
2017-09-12T16:14:05.956Z,1.90
2017-09-12T16:16:33.646Z,2.10
2017-09-12T16:19:01.278Z,2.30
2017-09-12T16:21:29.006Z,1.53
2017-09-12T16:23:56.631Z,1.40
2017-09-12T16:26:24.251Z,4.93
2017-09-12T16:28:51.879Z,3.17
2017-09-12T16:31:19.509Z,2.97
2017-09-12T16:33:47.163Z,1.30
2017-09-12T16:36:14.748Z,1.60
2017-09-12T16:38:42.400Z,2.27
2017-09-12T16:41:10.064Z,1.47
2017-09-12T16:43:37.655Z,2.00
2017-09-12T16:46:05.301Z,3.80
2017-09-12T16:48:32.917Z,5.77
2017-09-12T16:51:00.639Z,3.40
2017-09-12T16:53:28.267Z,3.30
2017-09-12T16:55:55.859Z,4.20
2017-09-12T16:58:23.475Z,14.83
2017-09-12T17:00:51.087Z,7.87
2017-09-12T17:03:18.904Z,4.70
2017-09-12T17:05:46.620Z,2.80
2017-09-12T17:08:14.388Z,2.40
2017-09-12T17:10:42.092Z,1.90
2017-09-12T17:13:09.818Z,2.20
2017-09-12T17:15:37.566Z,2.00
2017-09-12T17:18:05.315Z,2.00
2017-09-12T17:20:33.080Z,1.80
2017-09-12T17:23:00.756Z,1.90
2017-09-12T17:25:28.462Z,2.20
2017-09-12T17:27:56.175Z,1.57
2017-09-12T17:30:25.581Z,1.90
2017-09-12T17:32:53.311Z,2.73
2017-09-12T17:35:20.951Z,2.43
2017-09-12T17:37:48.614Z,2.63
2017-09-12T17:40:17.453Z,4.17
2017-09-12T17:42:45.243Z,150.73
2017-09-12T17:45:12.988Z,626.53
2017-09-12T17:47:41.891Z,493.23
2017-09-12T17:50:10.738Z,357.10
2017-09-12T17:52:38.385Z,9.10
2017-09-12T17:55:06.038Z,5.33
2017-09-12T17:57:33.784Z,2.00
2017-09-12T18:00:01.383Z,3.27
2017-09-12T18:02:29.051Z,234.17
2017-09-12T18:04:56.672Z,799.93
2017-09-12T18:07:24.338Z,201.53
2017-09-12T18:09:51.966Z,4.20
2017-09-12T18:12:19.607Z,1.80
2017-09-12T18:14:47.248Z,1.67
2017-09-12T18:17:14.897Z,1.60
2017-09-12T18:19:42.575Z,1.20
2017-09-12T18:22:10.192Z,1.57
2017-09-12T18:24:37.847Z,1.30
2017-09-12T18:27:05.496Z,1.30
2017-09-12T18:29:33.182Z,1.37
2017-09-12T18:32:00.832Z,1.60
2017-09-12T18:34:28.481Z,1.70
2017-09-12T18:36:56.120Z,1.47
2017-09-12T18:39:23.731Z,1.63
2017-09-12T18:41:51.335Z,38.73
2017-09-12T18:44:18.983Z,14.50
2017-09-12T18:46:46.582Z,8.67
2017-09-12T18:49:14.207Z,1.60
2017-09-12T18:51:41.954Z,1.67
2017-09-12T18:54:09.709Z,1.63
2017-09-12T18:56:37.441Z,1.50
2017-09-12T18:59:05.129Z,1.50
2017-09-12T19:01:32.807Z,1.57
2017-09-12T19:04:00.625Z,1.43
2017-09-12T19:06:28.458Z,1.47
2017-09-12T19:08:56.201Z,1.40
2017-09-12T19:11:24.052Z,1.73
2017-09-12T19:13:55.626Z,1.63
2017-09-12T19:16:23.532Z,1.93
2017-09-12T19:18:51.475Z,1.20
2017-09-12T19:21:19.071Z,2.30
2017-09-12T19:23:46.743Z,1.40
2017-09-12T19:26:14.346Z,1.20
2017-09-12T19:28:41.959Z,1.50
2017-09-12T19:31:09.789Z,1.50
2017-09-12T19:33:37.458Z,1.60
2017-09-12T19:36:05.088Z,1.30
2017-09-12T19:38:32.687Z,10.53
2017-09-12T19:41:00.331Z,1.60
2017-09-12T19:43:27.936Z,1.90
2017-09-12T19:45:55.585Z,1.63
2017-09-12T19:48:23.186Z,1.57
2017-09-12T19:50:50.846Z,1.33
2017-09-12T19:53:18.480Z,1.77
2017-09-12T19:55:46.238Z,1.40
2017-09-12T19:58:13.935Z,1.40
2017-09-12T20:00:41.723Z,2.80
2017-09-12T20:03:09.658Z,1.30
2017-09-12T20:05:37.279Z,1.60
2017-09-12T20:08:04.903Z,1.90
2017-09-12T20:10:32.539Z,1.23
2017-09-12T20:13:00.211Z,1.43
2017-09-12T20:15:27.849Z,2.40
2017-09-12T20:17:55.499Z,1.30
2017-09-12T20:20:23.152Z,1.40
2017-09-12T20:22:50.940Z,1.50
2017-09-12T20:25:18.619Z,1.30
2017-09-12T20:27:46.487Z,1.57
2017-09-12T20:30:14.151Z,1.40
2017-09-12T20:32:41.926Z,1.10
2017-09-12T20:35:09.774Z,1.07
2017-09-12T20:37:37.801Z,1.27
2017-09-12T20:40:05.512Z,1.30
2017-09-12T20:42:33.631Z,1.20
2017-09-12T20:45:02.058Z,1.70
2017-09-12T20:47:29.670Z,1.40
2017-09-12T20:49:57.393Z,1.90
2017-09-12T20:52:25.084Z,1.13
2017-09-12T20:54:52.789Z,1.40
2017-09-12T20:57:21.027Z,1.37
2017-09-12T20:59:49.727Z,1.50
2017-09-12T21:02:17.348Z,1.30
2017-09-12T21:04:45.007Z,1.40
2017-09-12T21:07:12.690Z,1.40
2017-09-12T21:09:40.306Z,1.33
2017-09-12T21:12:07.951Z,1.40
2017-09-12T21:14:35.623Z,1.20
2017-09-12T21:17:04.486Z,1.40
2017-09-12T21:19:32.277Z,1.37
2017-09-12T21:21:59.911Z,1.40
2017-09-12T21:24:27.673Z,1.60
2017-09-12T21:26:55.287Z,1.50
2017-09-12T21:29:22.924Z,1.30
2017-09-12T21:31:50.732Z,0.97
2017-09-12T21:34:18.459Z,1.90
2017-09-12T21:36:46.059Z,1.03
2017-09-12T21:39:13.698Z,1.63
2017-09-12T21:41:41.287Z,1.73
2017-09-12T21:44:08.910Z,1.87
2017-09-12T21:46:36.510Z,1.30
2017-09-12T21:49:04.166Z,1.50
2017-09-12T21:51:31.764Z,1.20
2017-09-12T21:53:59.414Z,1.30
2017-09-12T21:56:27.020Z,1.20
2017-09-12T21:58:54.610Z,1.40
2017-09-12T22:01:22.703Z,1.37
2017-09-12T22:03:50.726Z,1.10
2017-09-12T22:06:18.347Z,1.60
2017-09-12T22:08:45.983Z,2.70
2017-09-12T22:11:13.647Z,1.23
2017-09-12T22:13:41.276Z,1.10
2017-09-12T22:16:08.870Z,1.27
2017-09-12T22:18:36.504Z,1.40
2017-09-12T22:21:04.101Z,1.00
2017-09-12T22:23:31.733Z,1.30
2017-09-12T22:25:59.326Z,1.67
2017-09-12T22:28:26.943Z,2.00
2017-09-12T22:30:54.554Z,1.67
2017-09-12T22:33:22.191Z,1.80
2017-09-12T22:35:49.834Z,1.97
2017-09-12T22:38:17.468Z,1.87
2017-09-12T22:40:45.095Z,2.23
2017-09-12T22:43:12.812Z,2.07
2017-09-12T22:45:40.438Z,1.47
2017-09-12T22:48:08.078Z,1.73
2017-09-12T22:50:35.807Z,1.60
2017-09-12T22:53:03.494Z,1.57
2017-09-12T22:55:31.142Z,1.40
2017-09-12T22:57:58.825Z,1.30
2017-09-12T23:00:26.424Z,1.67
2017-09-12T23:02:55.778Z,1.50
2017-09-12T23:05:24.711Z,1.50
2017-09-12T23:07:52.491Z,1.30
2017-09-12T23:10:20.458Z,1.70
2017-09-12T23:12:48.083Z,1.60
2017-09-12T23:15:15.701Z,1.70
2017-09-12T23:17:43.339Z,1.63
2017-09-12T23:20:10.928Z,1.50
2017-09-12T23:22:38.534Z,1.50
2017-09-12T23:25:06.121Z,1.53
2017-09-12T23:27:33.754Z,1.57
2017-09-12T23:30:01.367Z,1.70
2017-09-12T23:32:29.027Z,1.93
2017-09-12T23:34:56.655Z,2.07
2017-09-12T23:37:24.251Z,2.37
2017-09-12T23:39:51.914Z,1.80
2017-09-12T23:42:19.526Z,1.83
2017-09-12T23:44:47.147Z,1.57
2017-09-12T23:47:15.046Z,1.60
2017-09-12T23:49:43.115Z,1.87
2017-09-12T23:52:12.161Z,1.83
2017-09-12T23:54:42.237Z,1.60
2017-09-12T23:57:10.045Z,1.60
2017-09-12T23:59:38.186Z,1.43
